Terminal Aerodrome Forecast
Issued by NWS

Home | Current Version | Previous Version | Text Only | Print | Product List | Glossary On
Versions: 1 2 3 4 5 6 7 8 9 10 11 12 13 14 15
837
FTUS41 KBGM 231503 AAA
TAFITH
TAF AMD
KITH 231503Z 2315/2412 20010KT P6SM BKN025 OVC050
      TEMPO 2317/2320 4SM -SHRA SCT015 OVC025
     FM232000 22010KT 5SM -SHRA BR OVC025
     FM240300 22006KT 4SM -SHRA BR OVC015
     FM240600 27006KT 4SM -SHRA BR OVC008=

USA.gov is the U.S. government's official web portal to all federal, state and local government web resources and services.